Terminal Aerodrome Forecast
Issued by NWS

Home | Current Version | Previous Version | Graphics & Text | Print | Product List | Glossary On
Versions: 1 2 3 4 5 6 7 8 9 10 11 12 13 14 15 16 17 18 19 20 21 22 23 24 25 26 27 28
000
FTUS43 KLOT 201500 AAA
TAFGYY
TAF AMD
KGYY 201500Z 2015/2112 27013G19KT P6SM SCT080 BKN250
     FM201900 27014G21KT P6SM SCT050 BKN100
      TEMPO 2019/2022 01020G30KT 5SM TSRA BKN050CB
     FM202200 01012KT 6SM -SHRA VCTS SCT050CB BKN080
     FM210000 17006KT P6SM SCT080
     FM210500 03004KT P6SM FEW100=

USA.gov is the U.S. government's official web portal to all federal, state and local government web resources and services.